Browerville, Minnesota
Current Conditions -  °F | °C
As of 1:26 AM on Sunday 23 Nov 2014 (Local Time) from K14Y Reporting Station
Moderate Fog Moderate Fog  
Wind Chill: 27°   Ceiling: 200
Heat Index: 34°   Visibility: 0.25mi
Dew Point: 34°   Wind: 8mph
Humidity: 100%   Direction: 150°SSE
Pressure: 29.4"   Gusts: NA
Location:  46.09°N, 94.87°W
Report Text: K14Y 230726Z AUTO 15007KT 1/4SM FG OVC002 01/01 A2940 RMK AO2
Loading
Personal Weather Stations






























Interactive Weather Map New forecast layout! Learn more

10-Day Weather Forecast

Advertisements
Track Severe Weather on mobile